createdAt,value
2022-09-10T00:01:59.433Z,12.70
2022-09-10T00:04:27.670Z,12.70
2022-09-10T00:06:55.302Z,12.80
2022-09-10T00:09:27.832Z,12.80
2022-09-10T00:11:54.725Z,12.90
2022-09-10T00:14:24.147Z,13.00
2022-09-10T00:16:50.900Z,13.00
2022-09-10T00:19:18.477Z,13.00
2022-09-10T00:21:45.338Z,13.10
2022-09-10T00:24:12.988Z,13.20
2022-09-10T00:26:40.286Z,13.20
2022-09-10T00:29:12.088Z,13.10
2022-09-10T00:31:39.729Z,13.00
2022-09-10T00:34:07.180Z,13.00
2022-09-10T00:36:39.638Z,12.90
2022-09-10T00:39:10.973Z,12.80
2022-09-10T00:41:40.379Z,12.70
2022-09-10T00:44:27.352Z,12.70
2022-09-10T00:46:55.580Z,12.60
2022-09-10T00:49:46.775Z,12.50
2022-09-10T00:52:14.003Z,12.50
2022-09-10T00:54:42.601Z,12.50
2022-09-10T00:57:20.246Z,12.50
2022-09-10T00:59:53.541Z,12.50
2022-09-10T01:02:21.557Z,12.50
2022-09-10T01:04:49.124Z,12.50
2022-09-10T01:07:18.561Z,12.50
2022-09-10T01:09:45.629Z,12.50
2022-09-10T01:12:42.505Z,12.50
2022-09-10T01:15:42.796Z,12.50
2022-09-10T01:18:18.761Z,12.40
2022-09-10T01:20:51.166Z,12.40
2022-09-10T01:23:45.985Z,12.40
2022-09-10T01:26:46.730Z,12.40
2022-09-10T01:29:13.836Z,12.40
2022-09-10T01:31:53.436Z,12.40
2022-09-10T01:34:29.753Z,12.40
2022-09-10T01:37:03.557Z,12.40
2022-09-10T01:39:31.994Z,12.40
2022-09-10T01:42:01.345Z,12.40
2022-09-10T01:44:48.935Z,12.40
2022-09-10T01:47:54.670Z,12.40
2022-09-10T01:50:49.206Z,12.30
2022-09-10T01:53:32.254Z,12.30
2022-09-10T01:56:35.592Z,12.30
2022-09-10T01:59:39.272Z,12.30
2022-09-10T02:02:19.618Z,12.30
2022-09-10T02:04:49.613Z,12.30
2022-09-10T02:07:22.222Z,12.30
2022-09-10T02:09:51.772Z,12.30
2022-09-10T02:12:20.273Z,12.30
2022-09-10T02:15:07.931Z,12.30
2022-09-10T02:17:55.854Z,12.30
2022-09-10T02:20:23.543Z,12.30
2022-09-10T02:22:56.820Z,12.30
2022-09-10T02:25:28.126Z,12.40
2022-09-10T02:27:57.311Z,12.40
2022-09-10T02:30:24.782Z,12.40
2022-09-10T02:32:51.928Z,12.40
2022-09-10T02:35:20.776Z,12.40
2022-09-10T02:37:50.534Z,12.40
2022-09-10T02:40:19.433Z,12.50
2022-09-10T02:42:47.593Z,12.40
2022-09-10T02:45:18.784Z,12.50
2022-09-10T02:47:45.522Z,12.50
2022-09-10T02:50:12.533Z,12.50
2022-09-10T02:52:39.343Z,12.50
2022-09-10T02:55:08.456Z,12.50
2022-09-10T02:57:35.675Z,12.40
2022-09-10T03:00:03.847Z,12.40
2022-09-10T03:02:30.581Z,12.40
2022-09-10T03:04:58.654Z,12.40
2022-09-10T03:07:25.426Z,12.40
2022-09-10T03:09:52.463Z,12.30
2022-09-10T03:12:20.205Z,12.40
2022-09-10T03:14:50.248Z,12.30
2022-09-10T03:17:16.986Z,12.30
2022-09-10T03:19:43.715Z,12.30
2022-09-10T03:22:11.366Z,12.30
2022-09-10T03:24:38.343Z,12.30
2022-09-10T03:27:06.828Z,12.30
2022-09-10T03:29:33.692Z,12.30
2022-09-10T03:32:01.181Z,12.30
2022-09-10T03:34:28.127Z,12.30
2022-09-10T03:36:54.916Z,12.30
2022-09-10T03:39:22.198Z,12.30
2022-09-10T03:41:48.935Z,12.30
2022-09-10T03:44:17.106Z,12.30
2022-09-10T03:46:45.519Z,12.30
2022-09-10T03:49:13.664Z,12.30
2022-09-10T03:51:40.523Z,12.30
2022-09-10T03:54:08.752Z,12.30
2022-09-10T03:56:35.896Z,12.30
2022-09-10T03:59:02.663Z,12.30
2022-09-10T04:01:30.002Z,12.30
2022-09-10T04:03:58.230Z,12.30
2022-09-10T04:06:27.070Z,12.30
2022-09-10T04:08:55.446Z,12.30
2022-09-10T04:11:24.198Z,12.30
2022-09-10T04:13:51.359Z,12.20
2022-09-10T04:16:18.811Z,12.20
2022-09-10T04:18:45.941Z,12.20
2022-09-10T04:21:15.692Z,12.20
2022-09-10T04:23:43.364Z,12.20
2022-09-10T04:26:18.399Z,12.20
2022-09-10T04:28:48.038Z,12.20
2022-09-10T04:31:16.207Z,12.20
2022-09-10T04:33:43.028Z,12.20
2022-09-10T04:36:09.742Z,12.20
2022-09-10T04:38:42.102Z,12.20
2022-09-10T04:41:10.981Z,12.20
2022-09-10T04:43:38.245Z,12.20
2022-09-10T04:46:06.183Z,12.20
2022-09-10T04:48:35.025Z,12.20
2022-09-10T04:51:17.962Z,12.20
2022-09-10T04:53:51.232Z,12.20
2022-09-10T04:56:20.389Z,12.20
2022-09-10T04:58:48.398Z,12.20
2022-09-10T05:01:15.399Z,12.20
2022-09-10T05:03:44.269Z,12.20
2022-09-10T05:06:12.918Z,12.20
2022-09-10T05:08:40.340Z,12.30
2022-09-10T05:11:07.350Z,12.30
2022-09-10T05:13:34.070Z,12.30
2022-09-10T05:16:01.934Z,12.30
2022-09-10T05:18:31.688Z,12.30
2022-09-10T05:20:58.836Z,12.30
2022-09-10T05:23:27.215Z,12.30
2022-09-10T05:25:55.150Z,12.30
2022-09-10T05:28:22.609Z,12.40
2022-09-10T05:30:51.759Z,12.40
2022-09-10T05:33:22.035Z,12.40
2022-09-10T05:35:52.621Z,12.40
2022-09-10T05:38:20.951Z,12.40
2022-09-10T05:40:48.947Z,12.40
2022-09-10T05:43:15.773Z,12.50
2022-09-10T05:45:44.460Z,12.40
2022-09-10T05:48:11.276Z,12.40
2022-09-10T05:50:38.516Z,12.40
2022-09-10T05:53:05.497Z,12.50
2022-09-10T05:55:33.219Z,12.40
2022-09-10T05:58:00.644Z,12.50
2022-09-10T06:00:27.876Z,12.50
2022-09-10T06:03:00.374Z,12.50
2022-09-10T06:05:51.342Z,12.50
2022-09-10T06:08:23.307Z,12.60
2022-09-10T06:10:57.634Z,12.60
2022-09-10T06:13:26.602Z,12.60
2022-09-10T06:15:54.374Z,12.70
2022-09-10T06:18:23.007Z,12.60
2022-09-10T06:20:50.026Z,12.60
2022-09-10T06:23:18.184Z,12.70
2022-09-10T06:25:48.321Z,12.70
2022-09-10T06:28:16.004Z,12.70
2022-09-10T06:30:42.745Z,12.70
2022-09-10T06:33:10.560Z,12.70
2022-09-10T06:35:37.260Z,12.70
2022-09-10T06:38:04.782Z,12.70
2022-09-10T06:40:33.479Z,12.70
2022-09-10T06:43:03.119Z,12.70
2022-09-10T06:46:00.527Z,12.70
2022-09-10T06:49:06.215Z,12.60
2022-09-10T06:51:35.593Z,12.70
2022-09-10T06:54:04.316Z,12.70
2022-09-10T06:56:31.992Z,12.70
2022-09-10T06:59:02.345Z,12.70
2022-09-10T07:01:35.037Z,12.80
2022-09-10T07:04:02.725Z,12.80
2022-09-10T07:06:35.107Z,12.90
2022-09-10T07:09:08.521Z,13.00
2022-09-10T07:12:09.371Z,13.20
2022-09-10T07:14:38.591Z,13.40
2022-09-10T07:17:07.969Z,13.40
2022-09-10T07:19:37.580Z,13.50
2022-09-10T07:22:10.745Z,13.60
2022-09-10T07:24:39.532Z,13.70
2022-09-10T07:27:10.933Z,13.70
2022-09-10T07:29:39.790Z,13.80
2022-09-10T07:32:13.683Z,13.80
2022-09-10T07:34:41.203Z,13.80
2022-09-10T07:37:07.996Z,13.90
2022-09-10T07:39:35.354Z,13.90
2022-09-10T07:42:02.931Z,14.00
2022-09-10T07:44:34.606Z,14.10
2022-09-10T07:47:03.358Z,14.20
2022-09-10T07:49:31.623Z,14.30
2022-09-10T07:52:00.225Z,14.30
2022-09-10T07:54:33.006Z,14.30
2022-09-10T07:57:00.637Z,14.30
2022-09-10T07:59:28.004Z,14.30
2022-09-10T08:02:00.539Z,14.20
2022-09-10T08:04:36.502Z,14.20
2022-09-10T08:07:05.833Z,14.20
2022-09-10T08:09:34.968Z,14.30
2022-09-10T08:12:03.581Z,14.30
2022-09-10T08:14:31.609Z,14.30
2022-09-10T08:16:58.403Z,14.40
2022-09-10T08:19:25.416Z,14.50
2022-09-10T08:21:52.947Z,14.60
2022-09-10T08:24:28.168Z,14.60
2022-09-10T08:26:55.089Z,14.70
2022-09-10T08:29:22.332Z,14.90
2022-09-10T08:31:49.807Z,15.20
2022-09-10T08:34:21.946Z,15.50
2022-09-10T08:36:55.493Z,15.60
2022-09-10T08:39:24.130Z,15.70
2022-09-10T08:42:27.546Z,15.80
2022-09-10T08:45:14.756Z,15.90
2022-09-10T08:48:08.337Z,15.90
2022-09-10T08:50:48.308Z,15.90
2022-09-10T08:53:23.027Z,16.00
2022-09-10T08:55:51.043Z,16.00
2022-09-10T08:58:25.154Z,16.00
2022-09-10T09:00:57.477Z,15.90
2022-09-10T09:03:42.683Z,15.90
2022-09-10T09:06:34.118Z,15.80
2022-09-10T09:09:03.937Z,15.80
2022-09-10T09:11:45.122Z,15.80
2022-09-10T09:14:33.631Z,15.80
2022-09-10T09:17:14.622Z,15.90
2022-09-10T09:20:10.154Z,15.90
2022-09-10T09:22:50.792Z,16.00
2022-09-10T09:25:38.616Z,16.00
2022-09-10T09:28:14.750Z,15.80
2022-09-10T09:30:49.386Z,15.70
2022-09-10T09:33:25.090Z,15.70
2022-09-10T09:36:03.011Z,15.70
2022-09-10T09:38:44.373Z,15.70
2022-09-10T09:41:32.229Z,15.60
2022-09-10T09:44:16.782Z,15.70
2022-09-10T09:46:43.579Z,15.70
2022-09-10T09:49:16.066Z,15.80
2022-09-10T09:51:47.682Z,15.90
2022-09-10T09:54:56.760Z,16.00
2022-09-10T09:57:15.859Z,16.20
2022-09-10T09:59:42.604Z,16.50
2022-09-10T10:02:15.431Z,17.10
2022-09-10T10:05:04.170Z,17.30
2022-09-10T10:07:36.196Z,17.60
2022-09-10T10:10:07.351Z,17.70
2022-09-10T10:12:36.763Z,17.90
2022-09-10T10:15:03.664Z,18.00
2022-09-10T10:17:38.697Z,17.90
2022-09-10T10:20:17.297Z,17.80
2022-09-10T10:22:46.076Z,17.80
2022-09-10T10:25:41.279Z,18.00
2022-09-10T10:28:25.482Z,18.00
2022-09-10T10:30:54.805Z,18.00
2022-09-10T10:33:32.921Z,18.00
2022-09-10T10:36:23.970Z,18.10
2022-09-10T10:39:30.141Z,18.20
2022-09-10T10:42:12.117Z,18.60
2022-09-10T10:45:00.326Z,19.10
2022-09-10T10:47:54.681Z,20.00
2022-09-10T10:50:27.399Z,20.40
2022-09-10T10:53:25.569Z,20.50
2022-09-10T10:56:00.631Z,20.30
2022-09-10T10:58:33.178Z,20.00
2022-09-10T11:01:07.083Z,19.70
2022-09-10T11:03:49.563Z,19.50
2022-09-10T11:06:20.346Z,19.20
2022-09-10T11:08:52.916Z,18.90
2022-09-10T11:11:33.144Z,18.50
2022-09-10T11:14:17.223Z,18.30
2022-09-10T11:16:49.624Z,18.00
2022-09-10T11:19:38.264Z,17.80
2022-09-10T11:22:18.560Z,17.50
2022-09-10T11:25:02.449Z,17.30
2022-09-10T11:27:33.234Z,17.00
2022-09-10T11:30:05.760Z,16.70
2022-09-10T11:32:59.282Z,16.50
2022-09-10T11:35:44.020Z,16.60
2022-09-10T11:38:29.074Z,16.60
2022-09-10T11:40:59.604Z,16.80
2022-09-10T11:43:41.195Z,16.90
2022-09-10T11:46:33.602Z,17.00
2022-09-10T11:49:16.289Z,17.00
2022-09-10T11:51:44.837Z,16.90
2022-09-10T11:54:21.205Z,16.80
2022-09-10T11:57:06.523Z,16.70
2022-09-10T12:00:08.372Z,16.60
2022-09-10T12:03:13.329Z,16.70
2022-09-10T12:05:48.220Z,16.70
2022-09-10T12:08:45.543Z,16.70
2022-09-10T12:11:15.309Z,16.80
2022-09-10T12:13:44.570Z,16.70
2022-09-10T12:16:32.831Z,16.60
2022-09-10T12:19:01.390Z,16.70
2022-09-10T12:21:37.717Z,17.10
2022-09-10T12:24:23.588Z,17.60
2022-09-10T12:26:50.562Z,18.00
2022-09-10T12:29:30.280Z,18.10
2022-09-10T12:32:13.527Z,18.60
2022-09-10T12:34:41.035Z,19.10
2022-09-10T12:37:20.850Z,19.60
2022-09-10T12:39:49.507Z,20.10
2022-09-10T12:42:34.236Z,20.50
2022-09-10T12:45:01.282Z,20.70
2022-09-10T12:47:39.981Z,20.80
2022-09-10T12:50:30.430Z,21.10
2022-09-10T12:53:18.651Z,21.60
2022-09-10T12:55:57.734Z,22.00
2022-09-10T12:58:31.417Z,22.40
2022-09-10T13:00:58.111Z,22.40
2022-09-10T13:03:27.945Z,22.20
2022-09-10T13:05:57.482Z,22.10
2022-09-10T13:08:43.224Z,22.00
2022-09-10T13:11:23.319Z,22.00
2022-09-10T13:14:02.057Z,21.60
2022-09-10T13:16:30.785Z,21.10
2022-09-10T13:19:12.923Z,20.70
2022-09-10T13:21:40.608Z,20.30
2022-09-10T13:24:35.990Z,19.90
2022-09-10T13:27:05.290Z,19.50
2022-09-10T13:29:39.574Z,19.20
2022-09-10T13:32:24.625Z,18.90
2022-09-10T13:35:19.731Z,18.70
2022-09-10T13:38:11.634Z,18.80
2022-09-10T13:40:44.699Z,19.10
2022-09-10T13:43:17.203Z,19.30
2022-09-10T13:46:14.662Z,19.60
2022-09-10T13:49:04.442Z,19.70
2022-09-10T13:51:44.517Z,19.90
2022-09-10T13:54:20.269Z,19.70
2022-09-10T13:56:47.388Z,19.60
2022-09-10T13:59:23.723Z,19.90
2022-09-10T14:01:53.186Z,19.90
2022-09-10T14:04:27.763Z,19.90
2022-09-10T14:07:01.877Z,19.70
2022-09-10T14:09:29.568Z,19.50
2022-09-10T14:11:59.693Z,19.30
2022-09-10T14:14:30.952Z,19.00
2022-09-10T14:17:04.972Z,18.80
2022-09-10T14:19:47.753Z,18.60
2022-09-10T14:22:17.494Z,18.40
2022-09-10T14:24:45.624Z,18.40
2022-09-10T14:27:31.564Z,18.40
2022-09-10T14:30:23.784Z,18.40
2022-09-10T14:32:52.069Z,18.40
2022-09-10T14:35:38.142Z,18.40
2022-09-10T14:38:25.696Z,18.50
2022-09-10T14:41:06.849Z,18.40
2022-09-10T14:43:38.333Z,18.50
2022-09-10T14:46:09.985Z,18.90
2022-09-10T14:48:44.266Z,19.40
2022-09-10T14:51:12.228Z,19.60
2022-09-10T14:53:40.714Z,19.80
2022-09-10T14:56:22.889Z,19.80
2022-09-10T14:58:59.789Z,19.70
2022-09-10T15:01:27.360Z,19.40
2022-09-10T15:03:54.175Z,19.20
2022-09-10T15:06:25.655Z,19.10
2022-09-10T15:08:55.946Z,18.90
2022-09-10T15:11:25.602Z,18.90
2022-09-10T15:13:55.706Z,18.70
2022-09-10T15:16:23.327Z,18.70
2022-09-10T15:18:50.268Z,18.70
2022-09-10T15:21:17.007Z,18.70
2022-09-10T15:23:44.444Z,18.70
2022-09-10T15:26:13.895Z,18.60
2022-09-10T15:28:41.863Z,18.50
2022-09-10T15:31:10.386Z,18.40
2022-09-10T15:33:37.289Z,18.30
2022-09-10T15:36:04.265Z,18.20
2022-09-10T15:38:31.377Z,18.00
2022-09-10T15:41:13.061Z,17.90
2022-09-10T15:43:42.979Z,17.70
2022-09-10T15:46:11.278Z,17.60
2022-09-10T15:48:38.444Z,17.50
2022-09-10T15:51:10.975Z,17.20
2022-09-10T15:53:39.742Z,17.00
2022-09-10T15:56:07.997Z,16.80
2022-09-10T15:58:35.391Z,16.60
2022-09-10T16:01:12.527Z,16.50
2022-09-10T16:03:51.609Z,16.50
2022-09-10T16:06:19.498Z,16.50
2022-09-10T16:08:56.957Z,16.50
2022-09-10T16:11:25.071Z,16.30
2022-09-10T16:13:52.473Z,16.20
2022-09-10T16:16:21.867Z,16.20
2022-09-10T16:18:51.285Z,16.10
2022-09-10T16:21:23.697Z,16.00
2022-09-10T16:23:53.184Z,15.90
2022-09-10T16:26:23.778Z,15.80
2022-09-10T16:28:55.994Z,15.80
2022-09-10T16:31:34.918Z,15.70
2022-09-10T16:34:05.140Z,15.60
2022-09-10T16:36:33.796Z,15.50
2022-09-10T16:39:05.228Z,15.50
2022-09-10T16:41:33.065Z,15.40
2022-09-10T16:44:00.512Z,15.40
2022-09-10T16:46:28.070Z,15.30
2022-09-10T16:48:55.876Z,15.20
2022-09-10T16:51:24.478Z,15.10
2022-09-10T16:54:02.822Z,15.00
2022-09-10T16:56:33.730Z,14.90
2022-09-10T16:59:01.304Z,14.90
2022-09-10T17:01:28.156Z,14.90
2022-09-10T17:03:56.075Z,14.80
2022-09-10T17:06:25.929Z,14.80
2022-09-10T17:08:57.771Z,14.80
2022-09-10T17:11:26.568Z,14.80
2022-09-10T17:13:56.768Z,14.80
2022-09-10T17:16:35.420Z,14.80
2022-09-10T17:19:10.917Z,14.80
2022-09-10T17:21:39.524Z,14.80
2022-09-10T17:24:08.523Z,14.80
2022-09-10T17:26:37.089Z,14.70
2022-09-10T17:29:09.509Z,14.70
2022-09-10T17:31:37.052Z,14.60
2022-09-10T17:34:04.663Z,14.60
2022-09-10T17:36:32.148Z,14.50
2022-09-10T17:38:59.612Z,14.50
2022-09-10T17:41:30.084Z,14.50
2022-09-10T17:43:58.884Z,14.50
2022-09-10T17:46:26.518Z,14.50
2022-09-10T17:48:54.225Z,14.40
2022-09-10T17:51:23.964Z,14.40
2022-09-10T17:53:52.051Z,14.40
2022-09-10T17:56:19.539Z,14.30
2022-09-10T17:58:47.864Z,14.30
2022-09-10T18:01:23.728Z,14.20
2022-09-10T18:03:51.561Z,14.20
2022-09-10T18:06:18.712Z,14.20
2022-09-10T18:08:45.641Z,14.20
2022-09-10T18:11:16.340Z,14.20
2022-09-10T18:13:47.645Z,14.20
2022-09-10T18:16:16.876Z,14.20
2022-09-10T18:18:45.474Z,14.20
2022-09-10T18:21:12.235Z,14.10
2022-09-10T18:23:39.252Z,14.10
2022-09-10T18:26:16.637Z,14.10
2022-09-10T18:28:44.060Z,14.00
2022-09-10T18:31:11.816Z,14.00
2022-09-10T18:33:40.763Z,13.90
2022-09-10T18:36:16.183Z,13.90
2022-09-10T18:38:43.622Z,13.90
2022-09-10T18:41:27.822Z,13.80
2022-09-10T18:43:57.844Z,13.80
2022-09-10T18:46:26.398Z,13.70
2022-09-10T18:48:53.584Z,13.70
2022-09-10T18:51:22.606Z,13.70
2022-09-10T18:53:53.621Z,13.70
2022-09-10T18:56:27.318Z,13.70
2022-09-10T18:59:07.127Z,13.60
2022-09-10T19:01:36.452Z,13.60
2022-09-10T19:04:05.945Z,13.60
2022-09-10T19:06:35.279Z,13.60
2022-09-10T19:09:08.037Z,13.60
2022-09-10T19:11:37.349Z,13.60
2022-09-10T19:14:06.784Z,13.70
2022-09-10T19:16:35.665Z,13.60
2022-09-10T19:19:06.508Z,13.60
2022-09-10T19:21:35.934Z,13.60
2022-09-10T19:24:03.895Z,13.60
2022-09-10T19:26:33.307Z,13.60
2022-09-10T19:29:01.662Z,13.60
2022-09-10T19:31:32.264Z,13.60
2022-09-10T19:34:01.820Z,13.50
2022-09-10T19:36:31.620Z,13.50
2022-09-10T19:38:59.573Z,13.50
2022-09-10T19:41:27.090Z,13.50
2022-09-10T19:43:54.978Z,13.50
2022-09-10T19:46:28.065Z,13.40
2022-09-10T19:48:58.195Z,13.40
2022-09-10T19:51:27.794Z,13.40
2022-09-10T19:53:55.456Z,13.40
2022-09-10T19:56:25.734Z,13.40
2022-09-10T19:58:55.557Z,13.40
2022-09-10T20:01:31.129Z,13.40
2022-09-10T20:04:00.975Z,13.40
2022-09-10T20:06:29.850Z,13.40
2022-09-10T20:08:57.498Z,13.40
2022-09-10T20:11:27.480Z,13.40
2022-09-10T20:14:03.599Z,13.40
2022-09-10T20:16:31.146Z,13.40
2022-09-10T20:18:58.174Z,13.40
2022-09-10T20:21:28.477Z,13.40
2022-09-10T20:23:56.291Z,13.40
2022-09-10T20:26:26.070Z,13.30
2022-09-10T20:28:58.250Z,13.30
2022-09-10T20:31:27.089Z,13.30
2022-09-10T20:33:57.180Z,13.30
2022-09-10T20:36:26.759Z,13.30
2022-09-10T20:38:54.199Z,13.30
2022-09-10T20:41:23.259Z,13.20
2022-09-10T20:43:51.951Z,13.20
2022-09-10T20:46:22.005Z,13.20
2022-09-10T20:48:50.041Z,13.20
2022-09-10T20:51:18.315Z,13.20
2022-09-10T20:53:45.385Z,13.20
2022-09-10T20:56:14.494Z,13.20
2022-09-10T20:58:42.337Z,13.10
2022-09-10T21:01:12.490Z,13.10
2022-09-10T21:03:41.047Z,13.10
2022-09-10T21:06:09.002Z,13.10
2022-09-10T21:08:37.317Z,13.10
2022-09-10T21:11:06.868Z,13.10
2022-09-10T21:13:34.459Z,13.00
2022-09-10T21:16:12.765Z,13.10
2022-09-10T21:18:43.353Z,13.10
2022-09-10T21:21:14.633Z,13.10
2022-09-10T21:23:47.534Z,13.10
2022-09-10T21:26:17.365Z,13.10
2022-09-10T21:28:44.831Z,13.20
2022-09-10T21:31:13.975Z,13.10
2022-09-10T21:33:42.824Z,13.10
2022-09-10T21:36:14.997Z,13.20
2022-09-10T21:38:46.574Z,13.20
2022-09-10T21:41:17.006Z,13.20
2022-09-10T21:43:46.426Z,13.20
2022-09-10T21:46:14.226Z,13.20
2022-09-10T21:48:42.287Z,13.20
2022-09-10T21:51:14.124Z,13.20
2022-09-10T21:53:42.263Z,13.20
2022-09-10T21:56:11.741Z,13.20
2022-09-10T21:58:40.259Z,13.20
2022-09-10T22:01:12.431Z,13.20
2022-09-10T22:03:39.256Z,13.20
2022-09-10T22:06:11.681Z,13.20
2022-09-10T22:08:43.753Z,13.20
2022-09-10T22:11:16.925Z,13.20
2022-09-10T22:13:44.682Z,13.20
2022-09-10T22:16:12.705Z,13.20
2022-09-10T22:18:41.339Z,13.20
2022-09-10T22:21:09.258Z,13.20
2022-09-10T22:23:38.364Z,13.20
2022-09-10T22:26:07.418Z,13.20
2022-09-10T22:28:35.721Z,13.20
2022-09-10T22:31:13.650Z,13.20
2022-09-10T22:33:42.404Z,13.20
2022-09-10T22:36:10.232Z,13.20
2022-09-10T22:38:36.998Z,13.20
2022-09-10T22:41:10.222Z,13.10
2022-09-10T22:43:38.470Z,13.10
2022-09-10T22:46:07.104Z,13.10
2022-09-10T22:48:38.174Z,13.10
2022-09-10T22:51:06.882Z,13.10
2022-09-10T22:53:35.058Z,13.00
2022-09-10T22:56:02.885Z,13.00
2022-09-10T22:58:30.046Z,13.00
2022-09-10T23:01:07.023Z,13.00
2022-09-10T23:03:33.816Z,13.00
2022-09-10T23:06:06.278Z,13.00
2022-09-10T23:08:36.988Z,13.00
2022-09-10T23:11:12.302Z,13.00
2022-09-10T23:13:39.353Z,12.90
2022-09-10T23:16:32.751Z,13.00
2022-09-10T23:19:01.459Z,13.00
2022-09-10T23:21:29.694Z,12.90
2022-09-10T23:23:59.047Z,12.90
2022-09-10T23:26:26.821Z,12.90
2022-09-10T23:28:55.507Z,12.90
2022-09-10T23:31:26.216Z,12.90
2022-09-10T23:33:59.097Z,12.80
2022-09-10T23:36:28.057Z,12.90
2022-09-10T23:38:54.781Z,12.90
2022-09-10T23:41:21.581Z,12.80
2022-09-10T23:43:48.336Z,12.80
2022-09-10T23:46:16.086Z,12.90
2022-09-10T23:48:43.934Z,12.80
2022-09-10T23:51:14.285Z,12.80
2022-09-10T23:53:41.306Z,12.80
2022-09-10T23:56:08.527Z,12.80
2022-09-10T23:58:35.396Z,12.90
